Terminal Aerodrome Forecast
Issued by NWS

Home | Current Version | Previous Version | Text Only | Print | Product List | Glossary On
Versions: 1 2 3 4 5 6 7 8 9 10 11 12 13 14 15 16 17 18 19 20
434
FTUS43 KJKL 252322
TAFSME
TAF
KSME 252322Z 2600/2624 27012G16KT P6SM VCSH BKN035 BKN040 OVC060
     FM260200 26005KT P6SM BKN040
     FM260900 VRB03KT P6SM SCT035 SCT150=

USA.gov is the U.S. government's official web portal to all federal, state and local government web resources and services.